Time;durP1;ratioP1;P1;durP2;ratioP2;P2;SDS_P1;SDS_P2;PMS_P1;PMS_P2;Temp;Humidity;BMP_temperature;BMP_pressure;BME280_temperature;BME280_humidity;BME280_pressure;Samples;Min_cycle;Max_cycle;Signal;HPM_P1;HPM_P2
2023/07/24 00:02:21;;;;;;;10.98;6.63;;;;;;;20.34;53.83;95719.91;5096243;28;20093;-72
2023/07/24 00:04:47;;;;;;;11.27;6.85;;;;;;;20.36;54.12;95714.00;5090997;28;20044;-72
2023/07/24 00:07:15;;;;;;;11.23;7.10;;;;;;;20.34;53.56;95710.81;5091023;28;20515;-72
2023/07/24 00:09:41;;;;;;;12.43;6.65;;;;;;;20.34;53.91;95703.31;5093608;28;20051;-72
2023/07/24 00:12:09;;;;;;;13.48;7.18;;;;;;;20.32;53.84;95707.66;5092574;28;20546;-73
2023/07/24 00:14:35;;;;;;;11.00;6.95;;;;;;;20.26;53.88;95699.00;5093168;28;20047;-73
2023/07/24 00:17:02;;;;;;;11.40;6.95;;;;;;;20.28;54.58;95685.53;5092628;28;20043;-74
2023/07/24 00:19:28;;;;;;;10.60;6.40;;;;;;;20.28;54.68;95693.84;5108848;27;20449;-73
2023/07/24 00:21:55;;;;;;;11.90;6.28;;;;;;;20.29;54.49;95691.88;5093321;28;20055;-73
2023/07/24 00:24:23;;;;;;;12.15;6.85;;;;;;;20.29;54.52;95691.88;5093515;28;20056;-72
2023/07/24 00:26:49;;;;;;;12.50;6.88;;;;;;;20.24;55.04;95683.97;5103733;27;20047;-72
2023/07/24 00:29:16;;;;;;;11.40;6.80;;;;;;;20.23;54.84;95694.25;5105679;27;20047;-73
2023/07/24 00:31:42;;;;;;;11.18;6.70;;;;;;;20.24;54.94;95683.97;5099043;28;20547;-72
2023/07/24 00:34:08;;;;;;;12.95;6.30;;;;;;;20.27;55.08;95677.66;5094450;28;20127;-73
2023/07/24 00:36:35;;;;;;;12.27;7.13;;;;;;;20.15;55.38;95686.34;5112373;27;20046;-73
2023/07/24 00:39:01;;;;;;;13.00;7.32;;;;;;;20.06;56.19;95682.03;5099404;28;20043;-75
2023/07/24 00:41:29;;;;;;;14.40;7.47;;;;;;;19.99;56.82;95668.22;5096379;28;20047;-72
2023/07/24 00:43:56;;;;;;;12.60;7.40;;;;;;;19.79;55.81;95669.78;5110760;27;20514;-73
2023/07/24 00:46:23;;;;;;;11.68;6.72;;;;;;;19.81;55.74;95661.88;5110606;27;20044;-72
2023/07/24 00:48:50;;;;;;;11.35;6.55;;;;;;;19.87;55.57;95663.06;5111007;27;20035;-73
2023/07/24 00:51:17;;;;;;;10.98;6.65;;;;;;;19.88;55.11;95667.41;5110009;27;20043;-72
2023/07/24 00:53:44;;;;;;;11.48;6.63;;;;;;;19.90;55.26;95656.75;5106179;27;20048;-73
2023/07/24 00:56:12;;;;;;;11.00;6.90;;;;;;;19.90;54.85;95647.69;5089553;28;20050;-73
2023/07/24 00:58:40;;;;;;;12.50;7.15;;;;;;;19.89;55.74;95655.19;5090217;28;20407;-73
2023/07/24 01:01:06;;;;;;;11.55;7.38;;;;;;;19.88;55.82;95650.81;5089629;28;20399;-73
2023/07/24 01:03:34;;;;;;;12.30;7.13;;;;;;;19.84;55.17;95643.72;5090469;28;20071;-73
2023/07/24 01:06:02;;;;;;;15.27;6.88;;;;;;;19.80;55.75;95647.28;5098159;27;20063;-73
2023/07/24 01:08:32;;;;;;;13.25;6.72;;;;;;;19.77;56.46;95641.75;5095205;28;20040;-73
2023/07/24 01:11:04;;;;;;;12.82;6.93;;;;;;;19.73;56.86;95633.50;5090068;28;20055;-73
2023/07/24 01:13:37;;;;;;;12.00;7.33;;;;;;;19.70;56.83;95628.75;5090184;28;20131;-73
2023/07/24 01:16:10;;;;;;;18.67;7.00;;;;;;;19.68;56.65;95633.06;5089751;28;20282;-74
2023/07/24 01:18:39;;;;;;;11.50;6.82;;;;;;;19.64;56.55;95629.53;5106629;27;20050;-73
2023/07/24 01:21:09;;;;;;;15.45;7.80;;;;;;;19.54;57.12;95625.56;5102430;27;20050;-72
2023/07/24 01:23:45;;;;;;;11.98;6.40;;;;;;;19.50;57.36;95613.72;5111708;27;20047;-73
2023/07/24 01:26:14;;;;;;;15.25;7.40;;;;;;;19.50;57.88;95622.00;5101892;27;20494;-73
2023/07/24 01:28:41;;;;;;;12.80;7.25;;;;;;;19.48;57.80;95619.63;5095372;28;20040;-73
2023/07/24 01:31:07;;;;;;;12.52;6.97;;;;;;;19.43;57.61;95625.53;5112533;27;20043;-73
2023/07/24 01:33:35;;;;;;;12.20;7.20;;;;;;;19.36;58.07;95616.44;5102662;28;20046;-72
2023/07/24 01:36:04;;;;;;;13.00;6.90;;;;;;;19.33;58.87;95615.28;5096688;28;20036;-73
2023/07/24 01:38:32;;;;;;;14.52;7.63;;;;;;;19.26;58.86;95615.25;5105884;28;20061;-72
2023/07/24 01:41:00;;;;;;;15.65;7.40;;;;;;;19.17;59.21;95612.09;5108574;28;20407;-72
2023/07/24 01:43:30;;;;;;;11.48;6.95;;;;;;;19.13;59.73;95614.06;5106913;27;20044;-73
2023/07/24 01:45:57;;;;;;;12.52;7.32;;;;;;;19.09;60.00;95616.00;5095493;28;20040;-73
2023/07/24 01:48:23;;;;;;;11.88;6.88;;;;;;;19.02;60.39;95617.59;5108847;28;20044;-73
2023/07/24 01:50:50;;;;;;;12.20;6.50;;;;;;;19.03;60.63;95619.16;5094519;28;20040;-73
2023/07/24 01:53:16;;;;;;;12.07;6.85;;;;;;;19.04;60.89;95615.22;5111573;28;20044;-73
2023/07/24 01:55:43;;;;;;;14.27;7.18;;;;;;;19.01;60.42;95613.25;5102759;28;20052;-73
2023/07/24 01:58:09;;;;;;;16.38;7.93;;;;;;;19.02;60.80;95612.06;5105036;27;20061;-73
2023/07/24 02:00:37;;;;;;;12.40;7.25;;;;;;;18.97;60.56;95612.44;5098540;28;20040;-72
2023/07/24 02:03:03;;;;;;;17.88;7.35;;;;;;;18.94;60.77;95620.69;5095782;27;20138;-73
2023/07/24 02:05:30;;;;;;;12.60;7.30;;;;;;;18.86;60.57;95625.41;5109187;27;20048;-73
2023/07/24 02:07:57;;;;;;;11.70;7.22;;;;;;;18.86;60.86;95624.63;5099700;28;20044;-73
2023/07/24 02:10:23;;;;;;;14.35;7.38;;;;;;;18.80;61.23;95646.28;5097879;28;20044;-73
2023/07/24 02:12:50;;;;;;;13.95;7.78;;;;;;;18.81;61.53;95652.59;5096570;27;20043;-73
2023/07/24 02:15:16;;;;;;;14.63;7.45;;;;;;;18.88;62.23;95666.41;5092973;28;20044;-72
2023/07/24 02:17:44;;;;;;;13.90;7.53;;;;;;;18.92;62.34;95679.03;5106687;27;20054;-73
2023/07/24 02:20:11;;;;;;;15.80;7.15;;;;;;;18.89;62.31;95685.31;5096490;27;20047;-73
2023/07/24 02:22:37;;;;;;;11.68;6.68;;;;;;;18.90;62.58;95677.84;5107110;28;20040;-73
2023/07/24 02:25:04;;;;;;;16.88;7.90;;;;;;;18.65;62.56;95644.63;5092573;28;20036;-72
2023/07/24 02:27:34;;;;;;;13.98;7.88;;;;;;;18.56;62.99;95635.91;5102625;27;20074;-73
2023/07/24 02:30:01;;;;;;;16.38;7.15;;;;;;;18.77;62.09;95628.53;5103778;27;20048;-73
2023/07/24 02:32:27;;;;;;;10.50;6.30;;;;;;;18.90;61.43;95637.25;5113596;27;20406;-73
2023/07/24 02:34:55;;;;;;;13.88;7.60;;;;;;;18.56;61.86;95628.41;5105160;28;20047;-73
2023/07/24 02:37:22;;;;;;;12.88;7.47;;;;;;;18.75;61.86;95641.94;5093297;28;20048;-73
2023/07/24 02:39:48;;;;;;;14.75;7.65;;;;;;;18.64;61.75;95668.66;5110564;27;20036;-73
2023/07/24 02:42:15;;;;;;;14.25;6.75;;;;;;;18.77;62.02;95663.59;5119672;27;20514;-72
2023/07/24 02:44:41;;;;;;;18.25;7.95;;;;;;;18.78;61.50;95679.75;5120499;27;20071;-73
2023/07/24 02:47:08;;;;;;;14.48;7.60;;;;;;;18.71;63.15;95678.94;5109711;27;20040;-73
2023/07/24 02:49:34;;;;;;;12.90;7.40;;;;;;;18.74;62.02;95684.50;5113353;27;20051;-73
2023/07/24 02:52:02;;;;;;;12.63;7.18;;;;;;;18.85;61.92;95697.53;5100766;28;20044;-73
2023/07/24 02:54:29;;;;;;;12.30;7.15;;;;;;;18.99;61.81;95673.53;5108157;27;20040;-73
2023/07/24 02:56:55;;;;;;;14.50;7.15;;;;;;;19.01;61.31;95682.22;5100270;28;20036;-73
2023/07/24 02:59:22;;;;;;;23.42;8.25;;;;;;;18.86;62.18;95690.84;5093229;28;20059;-73
2023/07/24 03:01:48;;;;;;;15.25;8.00;;;;;;;18.22;64.74;95653.44;5092760;28;20514;-73
2023/07/24 03:04:15;;;;;;;15.85;8.30;;;;;;;18.46;63.82;95651.22;5098345;28;20036;-73
2023/07/24 03:06:41;;;;;;;16.15;8.15;;;;;;;18.27;64.07;95677.09;5092492;28;20067;-73
2023/07/24 03:09:09;;;;;;;16.38;8.05;;;;;;;18.19;64.60;95653.44;5091958;28;20044;-73
2023/07/24 03:11:35;;;;;;;12.82;7.88;;;;;;;18.52;63.41;95664.22;5092156;28;20070;-73
2023/07/24 03:14:02;;;;;;;17.77;8.13;;;;;;;18.29;63.50;95649.94;5091503;28;20648;-73
2023/07/24 03:16:28;;;;;;;12.13;6.50;;;;;;;18.52;62.97;95655.97;5104120;27;20058;-73
2023/07/24 03:18:55;;;;;;;11.82;6.93;;;;;;;18.73;62.24;95660.03;5112481;27;20509;-72
2023/07/24 03:21:22;;;;;;;14.77;7.50;;;;;;;18.82;61.59;95693.56;5099344;27;20162;-73
2023/07/24 03:23:48;;;;;;;14.70;7.63;;;;;;;18.83;61.37;95736.53;5095822;28;20040;-73
2023/07/24 03:26:16;;;;;;;15.32;7.60;;;;;;;18.88;60.97;95785.81;5094072;27;20051;-73
2023/07/24 03:28:42;;;;;;;15.18;7.95;;;;;;;18.69;61.78;95825.50;5095607;28;20044;-73
2023/07/24 03:31:09;;;;;;;17.75;8.60;;;;;;;18.50;69.31;95939.53;5091028;28;20514;-73
2023/07/24 03:33:35;;;;;;;22.33;9.57;;;;;;;17.48;77.72;95946.19;5097995;28;20507;-73
2023/07/24 03:36:02;;;;;;;17.38;8.85;;;;;;;17.62;78.95;95933.78;5097305;27;20126;-73
2023/07/24 03:38:28;;;;;;;22.55;9.57;;;;;;;17.17;83.24;95908.81;5112155;27;20564;-73
2023/07/24 03:40:55;;;;;;;18.40;9.38;;;;;;;16.94;86.34;95886.84;5111572;27;20046;-73
2023/07/24 03:43:23;;;;;;;26.63;10.18;;;;;;;16.78;92.23;95891.72;5108353;27;20051;-73
2023/07/24 03:45:50;;;;;;;21.48;10.30;;;;;;;16.61;94.13;95864.72;5104173;27;20059;-73
2023/07/24 03:48:17;;;;;;;16.02;9.48;;;;;;;16.73;94.41;95826.03;5099444;27;20044;-73
2023/07/24 03:50:43;;;;;;;17.00;9.18;;;;;;;16.53;97.13;95784.09;5093879;27;20044;-73
2023/07/24 03:53:10;;;;;;;18.88;9.40;;;;;;;16.51;97.67;95738.91;5102262;28;20518;-74
2023/07/24 03:55:36;;;;;;;17.40;9.68;;;;;;;16.60;99.88;95728.44;5100789;28;20040;-73
2023/07/24 03:58:03;;;;;;;17.92;8.98;;;;;;;16.74;99.71;95747.91;5091582;28;20047;-73
2023/07/24 04:00:31;;;;;;;19.30;9.32;;;;;;;16.66;100.00;95741.50;5090969;28;20044;-74
2023/07/24 04:02:57;;;;;;;18.15;10.45;;;;;;;16.65;100.00;95704.19;5099988;27;20039;-73
2023/07/24 04:05:24;;;;;;;23.42;10.57;;;;;;;16.59;100.00;95664.41;5098165;28;20601;-72
2023/07/24 04:07:50;;;;;;;24.05;13.02;;;;;;;16.51;100.00;95640.78;5091589;28;20411;-73
2023/07/24 04:10:17;;;;;;;18.60;11.65;;;;;;;16.44;100.00;95624.19;5090835;28;20051;-73
2023/07/24 04:12:43;;;;;;;22.58;12.30;;;;;;;16.46;100.00;95610.09;5091216;28;20050;-74
2023/07/24 04:15:10;;;;;;;22.17;12.50;;;;;;;16.46;100.00;95615.56;5092105;27;20056;-74
2023/07/24 04:17:38;;;;;;;20.52;11.75;;;;;;;16.30;100.00;95622.06;5103373;27;20054;-73
2023/07/24 04:20:06;;;;;;;24.30;12.18;;;;;;;16.34;100.00;95624.81;5101320;28;20121;-73
2023/07/24 04:22:35;;;;;;;20.52;12.13;;;;;;;16.45;100.00;95628.53;5090845;28;20043;-73
2023/07/24 04:25:01;;;;;;;18.25;11.65;;;;;;;16.56;100.00;95623.16;5099009;27;20063;-73
2023/07/24 04:27:28;;;;;;;24.20;12.18;;;;;;;16.46;100.00;95643.84;5092462;28;20047;-73
2023/07/24 04:29:54;;;;;;;19.05;11.23;;;;;;;16.59;100.00;95631.44;5102416;27;20039;-74
2023/07/24 04:32:21;;;;;;;20.38;12.55;;;;;;;16.51;100.00;95596.00;5099077;28;20581;-73
2023/07/24 04:34:49;;;;;;;26.63;13.05;;;;;;;16.51;100.00;95585.81;5090802;28;20047;-74
2023/07/24 04:37:16;;;;;;;22.88;11.90;;;;;;;16.57;100.00;95600.00;5098497;27;20047;-73
2023/07/24 04:39:42;;;;;;;21.98;13.38;;;;;;;16.56;100.00;95614.91;5104363;27;20058;-73
2023/07/24 04:42:09;;;;;;;20.65;11.02;;;;;;;16.73;100.00;95606.09;5091823;28;20075;-74
2023/07/24 04:44:35;;;;;;;23.60;13.63;;;;;;;16.75;100.00;95601.00;5090407;28;20040;-74
2023/07/24 04:47:02;;;;;;;18.33;10.55;;;;;;;16.84;100.00;95623.50;5090132;28;20035;-75
2023/07/24 04:49:29;;;;;;;21.65;11.88;;;;;;;16.99;100.00;95632.72;5090476;28;20070;-73
2023/07/24 04:51:57;;;;;;;19.35;12.25;;;;;;;16.86;100.00;95667.94;5106287;27;20055;-73
2023/07/24 04:54:24;;;;;;;20.38;11.68;;;;;;;16.76;100.00;95701.59;5090182;28;20084;-74
2023/07/24 04:56:50;;;;;;;22.48;11.98;;;;;;;16.62;100.00;95673.88;5090067;27;20056;-73
2023/07/24 04:59:17;;;;;;;21.88;12.55;;;;;;;16.57;100.00;95589.81;5089415;28;20044;-74
2023/07/24 05:01:43;;;;;;;23.73;12.68;;;;;;;16.42;100.00;95550.38;5104455;27;20043;-73
2023/07/24 05:04:10;;;;;;;22.08;12.88;;;;;;;16.40;100.00;95571.16;5100609;27;20528;-75
2023/07/24 05:06:38;;;;;;;20.33;11.40;;;;;;;16.34;100.00;95600.91;5110464;27;20040;-74
2023/07/24 05:09:06;;;;;;;21.10;11.63;;;;;;;16.25;100.00;95638.84;5109072;27;20557;-73
2023/07/24 05:11:32;;;;;;;19.05;10.80;;;;;;;16.40;100.00;95650.84;5102155;27;20055;-73
2023/07/24 05:13:59;;;;;;;22.02;11.93;;;;;;;16.45;100.00;95647.75;5087371;28;20043;-74
2023/07/24 05:16:25;;;;;;;20.50;12.32;;;;;;;16.51;100.00;95634.47;5093263;27;20059;-74
2023/07/24 05:18:51;;;;;;;21.98;12.25;;;;;;;16.41;100.00;95642.22;5093224;28;20043;-74
2023/07/24 05:21:18;;;;;;;17.05;10.48;;;;;;;16.55;100.00;95649.03;5098074;27;20059;-74
2023/07/24 05:23:44;;;;;;;19.17;11.45;;;;;;;16.64;100.00;95650.34;5107149;27;20059;-74
2023/07/24 05:26:12;;;;;;;24.55;12.90;;;;;;;16.75;100.00;95650.50;5097136;27;20055;-75
2023/07/24 05:28:39;;;;;;;24.95;12.18;;;;;;;16.65;100.00;95632.72;5087406;28;20055;-74
2023/07/24 05:31:07;;;;;;;24.00;12.43;;;;;;;16.64;100.00;95617.34;5090083;28;20036;-74
2023/07/24 05:33:34;;;;;;;24.33;13.88;;;;;;;16.75;100.00;95605.72;5088121;28;20040;-75
2023/07/24 05:36:02;;;;;;;21.85;11.90;;;;;;;16.74;100.00;95604.16;5105760;27;20039;-74
2023/07/24 05:38:30;;;;;;;20.50;11.68;;;;;;;16.86;100.00;95585.44;5093155;28;20036;-74
2023/07/24 05:40:57;;;;;;;22.33;12.05;;;;;;;16.77;100.00;95593.19;5102714;27;20052;-74
2023/07/24 05:43:25;;;;;;;23.48;12.38;;;;;;;16.78;100.00;95607.72;5089388;28;20043;-74
2023/07/24 05:45:51;;;;;;;23.52;11.52;;;;;;;16.71;100.00;95605.72;5089781;28;20036;-74
2023/07/24 05:48:18;;;;;;;18.50;11.60;;;;;;;16.74;100.00;95607.69;5089373;28;20040;-74
2023/07/24 05:50:45;;;;;;;19.25;10.88;;;;;;;16.77;100.00;95593.19;5089620;28;20399;-74
2023/07/24 05:53:11;;;;;;;16.67;11.43;;;;;;;16.89;100.00;95578.38;5089222;28;20055;-74
2023/07/24 05:55:38;;;;;;;17.92;11.93;;;;;;;16.91;100.00;95571.38;5097350;27;20051;-74
2023/07/24 05:58:04;;;;;;;21.30;11.80;;;;;;;16.92;100.00;95577.66;5097310;28;20043;-75
2023/07/24 06:00:33;;;;;;;22.02;11.95;;;;;;;17.00;100.00;95584.00;5092662;28;20577;-74
2023/07/24 06:02:59;;;;;;;17.27;11.48;;;;;;;17.16;100.00;95576.28;5109439;28;20048;-74
2023/07/24 06:05:26;;;;;;;18.65;11.15;;;;;;;17.23;100.00;95581.88;5106380;28;20407;-74
2023/07/24 06:07:52;;;;;;;17.00;10.80;;;;;;;17.29;100.00;95574.84;5089927;28;20040;-74
2023/07/24 06:10:19;;;;;;;17.65;10.32;;;;;;;17.44;100.00;95573.78;5088929;28;20044;-74
2023/07/24 06:12:45;;;;;;;14.30;9.02;;;;;;;17.54;100.00;95574.22;5091662;28;20036;-74
2023/07/24 06:15:11;;;;;;;15.73;9.70;;;;;;;17.63;100.00;95556.22;5091028;28;20040;-74
2023/07/24 06:17:39;;;;;;;20.13;11.25;;;;;;;17.69;100.00;95549.19;5105889;27;20410;-74
2023/07/24 06:20:07;;;;;;;15.77;9.90;;;;;;;17.84;100.00;95538.28;5112274;27;20051;-74
2023/07/24 06:22:34;;;;;;;18.35;9.63;;;;;;;17.96;100.00;95538.00;5098361;28;20047;-74
2023/07/24 06:25:00;;;;;;;18.10;9.65;;;;;;;18.14;100.00;95536.09;5092780;28;20043;-74
2023/07/24 06:27:27;;;;;;;15.27;9.98;;;;;;;18.32;100.00;95547.19;5092640;28;20040;-74
2023/07/24 06:29:53;;;;;;;15.18;9.20;;;;;;;18.48;100.00;95552.38;5092854;28;20044;-74
2023/07/24 06:32:20;;;;;;;16.60;9.75;;;;;;;18.61;99.25;95563.84;5092598;28;20047;-74
2023/07/24 06:34:47;;;;;;;13.48;8.68;;;;;;;18.72;98.25;95567.44;5098118;28;20048;-73
2023/07/24 06:37:14;;;;;;;15.75;9.18;;;;;;;18.86;97.54;95559.22;5104362;27;20491;-73
2023/07/24 06:39:40;;;;;;;16.70;9.35;;;;;;;18.93;97.81;95542.66;5105080;27;20035;-73
2023/07/24 06:42:07;;;;;;;15.52;9.73;;;;;;;19.09;98.16;95538.75;5114146;27;20047;-74
2023/07/24 06:44:33;;;;;;;14.27;10.00;;;;;;;19.15;99.19;95520.63;5115729;27;20043;-74
2023/07/24 06:47:00;;;;;;;17.88;10.15;;;;;;;19.22;99.15;95509.59;5115670;27;20042;-74
2023/07/24 06:49:26;;;;;;;14.38;8.80;;;;;;;19.27;94.33;95507.22;5114749;27;20039;-73
2023/07/24 06:51:54;;;;;;;14.85;9.10;;;;;;;19.42;96.01;95507.19;5116036;27;20442;-74
2023/07/24 06:54:21;;;;;;;16.15;9.60;;;;;;;19.55;92.19;95506.41;5115053;27;20044;-74
2023/07/24 06:56:47;;;;;;;14.38;9.55;;;;;;;19.65;91.66;95515.13;5095273;28;20044;-74
2023/07/24 06:59:16;;;;;;;14.63;9.20;;;;;;;19.79;92.78;95509.56;5093568;28;20048;-74
2023/07/24 07:01:43;;;;;;;16.90;9.07;;;;;;;19.87;88.35;95511.13;5094394;28;20491;-73
2023/07/24 07:04:09;;;;;;;13.80;8.50;;;;;;;19.93;86.97;95515.03;5093372;28;20044;-73
2023/07/24 07:06:36;;;;;;;12.63;7.97;;;;;;;20.10;89.35;95523.69;5098870;28;20394;-73
2023/07/24 07:09:04;;;;;;;12.35;7.70;;;;;;;20.16;86.61;95522.09;5108705;27;20054;-75
2023/07/24 07:11:31;;;;;;;13.75;8.65;;;;;;;20.30;85.14;95533.88;5097637;28;20052;-74
2023/07/24 07:13:57;;;;;;;12.90;8.52;;;;;;;20.45;82.46;95523.53;5106625;27;20048;-74
2023/07/24 07:16:24;;;;;;;13.13;8.40;;;;;;;20.57;83.86;95528.66;5093085;28;20052;-73
2023/07/24 07:18:50;;;;;;;15.55;8.57;;;;;;;20.81;82.07;95529.72;5112534;27;20054;-73
2023/07/24 07:21:17;;;;;;;16.50;8.38;;;;;;;20.97;78.85;95554.13;5094486;28;20114;-74
2023/07/24 07:23:43;;;;;;;15.57;8.10;;;;;;;21.14;78.46;95562.72;5092219;28;20055;-74
2023/07/24 07:26:11;;;;;;;12.23;8.23;;;;;;;21.38;76.20;95564.56;5091426;28;20044;-74
2023/07/24 07:28:38;;;;;;;13.75;8.15;;;;;;;21.51;74.01;95562.09;5103553;27;20048;-74
2023/07/24 07:31:04;;;;;;;12.98;8.10;;;;;;;21.57;69.90;95566.78;5096236;27;20051;-74
2023/07/24 07:33:31;;;;;;;14.50;8.38;;;;;;;21.70;68.58;95571.81;5100171;27;20097;-74
2023/07/24 07:35:58;;;;;;;12.82;8.15;;;;;;;21.83;68.60;95603.38;5091436;28;20047;-74
2023/07/24 07:38:24;;;;;;;11.38;7.20;;;;;;;21.87;69.65;95629.06;5091181;28;20515;-74
2023/07/24 07:40:51;;;;;;;16.13;8.65;;;;;;;21.84;69.12;95641.78;5091504;28;20040;-74
2023/07/24 07:43:19;;;;;;;12.00;7.78;;;;;;;21.82;68.17;95652.50;5091145;28;20054;-74
2023/07/24 07:45:45;;;;;;;11.88;7.90;;;;;;;21.73;67.23;95671.56;5094011;28;20032;-73
2023/07/24 07:48:12;;;;;;;11.63;8.13;;;;;;;21.75;69.51;95696.06;5101832;27;20051;-73
2023/07/24 07:50:38;;;;;;;13.20;8.10;;;;;;;21.76;71.64;95758.63;5107678;28;20138;-73
2023/07/24 07:53:05;;;;;;;12.43;8.07;;;;;;;21.74;69.44;95747.16;5101454;28;20055;-74
2023/07/24 07:55:31;;;;;;;13.18;7.57;;;;;;;21.96;66.93;95753.34;5096180;28;20407;-73
2023/07/24 07:57:58;;;;;;;12.38;7.68;;;;;;;22.06;68.22;95747.72;5096424;28;20051;-73
2023/07/24 08:00:25;;;;;;;13.68;6.72;;;;;;;22.02;67.27;95748.94;5094548;28;20546;-73
2023/07/24 08:02:52;;;;;;;12.77;6.90;;;;;;;21.71;68.91;95748.75;5112489;27;20043;-73
2023/07/24 08:05:18;;;;;;;12.05;7.38;;;;;;;21.64;70.00;95746.03;5112932;27;20044;-74
2023/07/24 08:07:45;;;;;;;11.70;7.07;;;;;;;21.68;70.01;95759.88;5096975;28;20040;-74
2023/07/24 08:10:14;;;;;;;12.85;7.57;;;;;;;21.63;69.95;95761.06;5094957;28;20488;-73
2023/07/24 08:12:41;;;;;;;13.18;7.63;;;;;;;21.43;70.77;95769.09;5091100;28;20040;-74
2023/07/24 08:15:09;;;;;;;12.52;7.20;;;;;;;21.41;71.21;95777.00;5090614;28;20047;-74
2023/07/24 08:17:37;;;;;;;15.88;7.53;;;;;;;21.21;72.89;95771.13;5091328;28;20044;-74
2023/07/24 08:20:04;;;;;;;12.13;7.35;;;;;;;21.06;73.95;95770.38;5090459;28;20040;-74
2023/07/24 08:22:30;;;;;;;13.13;7.30;;;;;;;21.01;75.23;95776.31;5092652;28;20043;-74
2023/07/24 08:24:57;;;;;;;11.65;7.05;;;;;;;20.99;75.70;95764.88;5106223;27;20055;-73
2023/07/24 08:27:23;;;;;;;11.27;6.55;;;;;;;20.84;77.70;95755.81;5107503;27;20044;-73
2023/07/24 08:29:51;;;;;;;16.38;7.97;;;;;;;20.77;79.59;95755.03;5098547;28;20040;-74
2023/07/24 08:32:18;;;;;;;11.38;7.53;;;;;;;20.60;80.52;95756.63;5090681;28;20048;-73
2023/07/24 08:34:46;;;;;;;13.07;7.10;;;;;;;20.59;80.62;95760.59;5094249;28;20040;-73
2023/07/24 08:37:12;;;;;;;11.73;6.82;;;;;;;20.69;77.79;95753.47;5103642;28;20040;-73
2023/07/24 08:39:39;;;;;;;11.98;7.07;;;;;;;20.58;79.36;95732.16;5093070;28;20040;-73
2023/07/24 08:42:10;;;;;;;11.48;5.93;;;;;;;20.68;78.14;95727.00;5093741;28;20100;-73
2023/07/24 08:44:37;;;;;;;13.73;7.00;;;;;;;20.46;78.98;95713.19;5097322;28;20085;-73
2023/07/24 08:47:05;;;;;;;10.85;5.93;;;;;;;20.56;79.07;95706.06;5109055;27;20072;-73
2023/07/24 08:49:34;;;;;;;11.48;7.40;;;;;;;20.42;80.32;95712.41;5095485;28;20494;-73
2023/07/24 08:52:02;;;;;;;11.05;6.38;;;;;;;20.34;79.96;95702.53;5100327;28;20042;-73
2023/07/24 08:54:28;;;;;;;12.18;7.10;;;;;;;20.36;81.13;95696.59;5107523;28;20048;-73
2023/07/24 08:56:55;;;;;;;12.48;6.85;;;;;;;20.39;79.98;95688.28;5096207;28;20051;-73
2023/07/24 08:59:21;;;;;;;10.75;6.32;;;;;;;20.51;78.65;95676.84;5096103;28;20055;-73
2023/07/24 09:01:48;;;;;;;13.35;6.53;;;;;;;20.49;77.66;95679.22;5096557;28;20108;-73
2023/07/24 09:04:14;;;;;;;8.85;5.93;;;;;;;20.45;78.26;95659.03;5095353;28;20050;-73
2023/07/24 09:06:41;;;;;;;9.48;6.18;;;;;;;20.35;76.99;95643.25;5091884;28;20047;-74
2023/07/24 09:09:15;;;;;;;10.90;6.40;;;;;;;20.63;76.62;95633.34;5096622;27;20462;-73
2023/07/24 09:11:50;;;;;;;11.02;6.75;;;;;;;20.72;75.99;95608.81;5102793;28;20533;-73
2023/07/24 09:14:26;;;;;;;10.55;5.85;;;;;;;20.68;73.88;95591.44;5102745;27;20050;-73
2023/07/24 09:17:03;;;;;;;9.95;5.90;;;;;;;20.78;73.89;95576.78;5098600;27;20040;-72
2023/07/24 09:19:30;;;;;;;34.65;8.25;;;;;;;20.96;74.56;95577.47;5089681;28;20040;-72
2023/07/24 09:21:56;;;;;;;20.23;6.97;;;;;;;20.95;74.03;95584.19;5090238;28;20047;-74
2023/07/24 09:24:24;;;;;;;267.17;23.42;;;;;;;20.89;75.25;95585.03;5092200;28;20036;-73
2023/07/24 09:26:52;;;;;;;8.85;5.70;;;;;;;20.73;73.67;95577.19;5101684;27;20047;-73
2023/07/24 09:29:19;;;;;;;14.57;6.65;;;;;;;20.76;72.73;95568.06;5109736;27;20394;-73
2023/07/24 09:31:46;;;;;;;10.38;5.95;;;;;;;20.81;71.88;95573.19;5098960;28;20047;-73
2023/07/24 09:34:17;;;;;;;9.00;6.03;;;;;;;20.91;71.93;95577.88;5089311;28;20055;-73
2023/07/24 09:36:44;;;;;;;9.80;5.82;;;;;;;20.99;71.19;95573.13;5092130;28;20047;-73
2023/07/24 09:39:11;;;;;;;10.60;5.78;;;;;;;21.07;71.04;95569.88;5103548;27;20052;-73
2023/07/24 09:41:40;;;;;;;9.13;5.95;;;;;;;21.09;70.64;95561.97;5089449;28;20075;-73
2023/07/24 09:44:07;;;;;;;12.52;6.00;;;;;;;21.26;72.21;95567.78;5094756;27;20043;-74
2023/07/24 09:46:33;;;;;;;12.02;6.40;;;;;;;21.29;72.90;95569.72;5101635;27;20047;-74
2023/07/24 09:49:00;;;;;;;9.88;5.80;;;;;;;21.30;71.58;95566.59;5110217;27;20047;-73
2023/07/24 09:51:30;;;;;;;10.35;6.05;;;;;;;21.33;69.99;95559.44;5109446;27;20096;-73
2023/07/24 09:54:01;;;;;;;9.45;6.22;;;;;;;21.33;70.44;95542.84;5110005;27;20630;-73
2023/07/24 09:56:29;;;;;;;10.15;6.18;;;;;;;21.35;70.82;95545.97;5101343;28;20043;-73
2023/07/24 09:58:58;;;;;;;11.35;6.30;;;;;;;21.36;70.53;95559.44;5091623;28;20046;-73
2023/07/24 10:01:25;;;;;;;11.65;7.13;;;;;;;21.40;70.88;95547.53;5092814;28;20527;-73
2023/07/24 10:03:52;;;;;;;9.85;6.30;;;;;;;21.41;71.52;95549.91;5093184;28;20399;-73
2023/07/24 10:06:19;;;;;;;12.25;6.88;;;;;;;21.50;72.13;95552.19;5093127;28;20713;-73
2023/07/24 10:08:46;;;;;;;10.68;6.50;;;;;;;21.63;72.96;95545.75;5110320;27;20062;-73
2023/07/24 10:11:15;;;;;;;9.98;6.30;;;;;;;22.01;69.82;95531.91;5092774;28;20052;-73
2023/07/24 10:13:42;;;;;;;10.43;6.60;;;;;;;22.56;68.77;95539.25;5093234;28;20044;-73
2023/07/24 10:16:10;;;;;;;10.27;6.10;;;;;;;23.10;65.92;95533.78;5092980;28;20055;-74
2023/07/24 10:18:44;;;;;;;9.68;6.45;;;;;;;23.30;64.69;95519.19;5093217;28;20044;-73
2023/07/24 10:21:11;;;;;;;10.50;5.90;;;;;;;23.34;63.77;95536.59;5106513;27;20054;-73
2023/07/24 10:23:41;;;;;;;8.07;5.68;;;;;;;23.31;61.22;95527.09;5095707;28;20070;-73
2023/07/24 10:26:09;;;;;;;8.23;5.43;;;;;;;23.26;62.49;95529.56;5094803;28;20043;-74
2023/07/24 10:28:38;;;;;;;10.88;6.32;;;;;;;23.28;61.78;95527.94;5093030;28;20510;-74
2023/07/24 10:31:08;;;;;;;10.13;5.68;;;;;;;23.21;62.57;95527.28;5105573;27;20154;-74
2023/07/24 10:33:44;;;;;;;8.85;5.97;;;;;;;23.20;61.83;95523.72;5096239;28;20039;-73
2023/07/24 10:36:13;;;;;;;10.27;6.25;;;;;;;23.22;61.70;95523.28;5107543;27;20048;-73
2023/07/24 10:38:42;;;;;;;9.73;6.13;;;;;;;23.33;63.72;95532.22;5092876;28;20040;-73
2023/07/24 10:41:11;;;;;;;10.02;6.15;;;;;;;23.45;60.99;95548.34;5097209;27;20047;-74
2023/07/24 10:43:42;;;;;;;7.82;5.63;;;;;;;23.47;60.73;95540.34;5103953;28;20055;-74
2023/07/24 10:46:09;;;;;;;8.20;5.35;;;;;;;23.52;60.99;95531.53;5092449;28;20044;-73
2023/07/24 10:48:37;;;;;;;8.90;5.80;;;;;;;23.72;59.07;95541.97;5092661;28;20051;-73
2023/07/24 10:51:08;;;;;;;11.73;6.22;;;;;;;23.92;56.94;95548.38;5104807;27;20039;-73
2023/07/24 10:53:35;;;;;;;9.35;5.85;;;;;;;24.02;57.93;95547.38;5095707;28;20123;-74
2023/07/24 10:56:02;;;;;;;8.13;5.25;;;;;;;24.09;58.74;95543.69;5103403;27;20043;-74
2023/07/24 10:58:28;;;;;;;8.45;5.35;;;;;;;24.08;55.23;95548.47;5108489;27;20055;-74
2023/07/24 11:00:57;;;;;;;9.10;5.40;;;;;;;24.07;56.67;95546.91;5104324;27;20048;-74
2023/07/24 11:03:25;;;;;;;8.85;6.00;;;;;;;24.02;56.39;95544.59;5104077;27;20046;-73
2023/07/24 11:05:53;;;;;;;11.85;5.60;;;;;;;23.98;56.15;95534.75;5112661;27;20047;-73
2023/07/24 11:08:21;;;;;;;10.18;5.75;;;;;;;23.92;57.12;95531.69;5112340;27;20051;-73
2023/07/24 11:10:49;;;;;;;8.13;5.65;;;;;;;23.90;56.40;95536.88;5112256;27;20040;-74
2023/07/24 11:13:16;;;;;;;9.18;5.82;;;;;;;23.81;56.47;95536.66;5098892;27;20052;-73
2023/07/24 11:15:42;;;;;;;8.70;5.68;;;;;;;23.75;57.72;95522.44;5094196;28;20044;-73
2023/07/24 11:18:09;;;;;;;7.97;5.57;;;;;;;23.72;58.28;95512.16;5108092;28;20048;-74
2023/07/24 11:20:38;;;;;;;10.32;5.63;;;;;;;23.75;57.90;95511.31;5100780;28;20449;-73
2023/07/24 11:23:06;;;;;;;7.63;5.22;;;;;;;23.79;57.81;95509.25;5104909;27;20404;-74